Terminal Aerodrome Forecast
Issued by NWS

Home | Current Version | Previous Version | Graphics & Text | Print | Product List | Glossary Off
Versions: 1 2 3 4 5 6 7 8 9 10 11 12 13 14 15 16 17 18 19 20 21 22 23 24 25 26 27 28 29

000
FTUS43 KDDC 181724
TAFGCK
TAF
KGCK 181724Z 1818/1918 17015G25KT P6SM SCT050
     FM190000 13019G27KT P6SM VCTS SCT050 BKN250CB
      TEMPO 1900/1904 4SM TSRA BKN150 BKN200CB
     FM190800 09009KT P6SM SCT150 WS020/17040KT
     FM191200 02010KT P6SM SCT050
     FM191600 34008KT P6SM SCT110=

USA.gov is the U.S. government's official web portal to all federal, state and local government web resources and services.